sensor_id;sensor_type;location;lat;lon;timestamp;P1;durP1;ratioP1;P2;durP2;ratioP2
31906;SDS011;18455;50.858;13.662;2024-01-16T00:03:25;3.50;;;1.93;;
31906;SDS011;18455;50.858;13.662;2024-01-16T00:08:25;5.87;;;2.33;;
31906;SDS011;18455;50.858;13.662;2024-01-16T00:13:25;2.63;;;2.00;;
31906;SDS011;18455;50.858;13.662;2024-01-16T00:18:26;5.13;;;2.13;;
31906;SDS011;18455;50.858;13.662;2024-01-16T00:23:26;5.90;;;2.70;;
31906;SDS011;18455;50.858;13.662;2024-01-16T00:28:26;7.53;;;3.20;;
31906;SDS011;18455;50.858;13.662;2024-01-16T00:33:26;11.20;;;2.63;;
31906;SDS011;18455;50.858;13.662;2024-01-16T00:38:27;7.00;;;3.30;;
31906;SDS011;18455;50.858;13.662;2024-01-16T00:43:27;8.20;;;3.20;;
31906;SDS011;18455;50.858;13.662;2024-01-16T00:48:27;6.00;;;2.53;;
31906;SDS011;18455;50.858;13.662;2024-01-16T00:53:28;5.33;;;2.47;;
31906;SDS011;18455;50.858;13.662;2024-01-16T00:58:28;8.00;;;2.50;;
31906;SDS011;18455;50.858;13.662;2024-01-16T01:03:28;12.00;;;2.90;;
31906;SDS011;18455;50.858;13.662;2024-01-16T01:08:28;5.20;;;2.47;;
31906;SDS011;18455;50.858;13.662;2024-01-16T01:13:28;3.27;;;2.70;;
31906;SDS011;18455;50.858;13.662;2024-01-16T01:18:28;5.20;;;2.40;;
31906;SDS011;18455;50.858;13.662;2024-01-16T01:23:29;5.50;;;2.90;;
31906;SDS011;18455;50.858;13.662;2024-01-16T01:28:29;7.10;;;3.20;;
31906;SDS011;18455;50.858;13.662;2024-01-16T01:33:29;7.17;;;3.83;;
31906;SDS011;18455;50.858;13.662;2024-01-16T01:38:29;3.33;;;2.53;;
31906;SDS011;18455;50.858;13.662;2024-01-16T01:43:29;10.93;;;2.93;;
31906;SDS011;18455;50.858;13.662;2024-01-16T01:48:30;5.53;;;3.13;;
31906;SDS011;18455;50.858;13.662;2024-01-16T01:53:32;9.43;;;3.53;;
31906;SDS011;18455;50.858;13.662;2024-01-16T01:58:33;7.27;;;3.37;;
31906;SDS011;18455;50.858;13.662;2024-01-16T02:03:35;7.77;;;2.93;;
31906;SDS011;18455;50.858;13.662;2024-01-16T02:08:40;5.03;;;2.67;;
31906;SDS011;18455;50.858;13.662;2024-01-16T02:13:40;2.97;;;2.17;;
31906;SDS011;18455;50.858;13.662;2024-01-16T02:18:41;5.03;;;2.80;;
31906;SDS011;18455;50.858;13.662;2024-01-16T02:23:42;6.57;;;2.97;;
31906;SDS011;18455;50.858;13.662;2024-01-16T02:28:42;4.87;;;2.13;;
31906;SDS011;18455;50.858;13.662;2024-01-16T02:33:42;13.47;;;2.93;;
31906;SDS011;18455;50.858;13.662;2024-01-16T02:38:43;5.07;;;2.23;;
31906;SDS011;18455;50.858;13.662;2024-01-16T02:43:43;4.93;;;2.00;;
31906;SDS011;18455;50.858;13.662;2024-01-16T02:48:43;5.33;;;2.33;;
31906;SDS011;18455;50.858;13.662;2024-01-16T02:53:43;3.90;;;2.80;;
31906;SDS011;18455;50.858;13.662;2024-01-16T02:58:44;6.43;;;2.50;;
31906;SDS011;18455;50.858;13.662;2024-01-16T03:03:44;5.93;;;2.67;;
31906;SDS011;18455;50.858;13.662;2024-01-16T03:08:44;7.27;;;3.23;;
31906;SDS011;18455;50.858;13.662;2024-01-16T03:13:44;6.10;;;3.20;;
31906;SDS011;18455;50.858;13.662;2024-01-16T03:18:45;5.93;;;2.30;;
31906;SDS011;18455;50.858;13.662;2024-01-16T03:23:45;8.80;;;3.07;;
31906;SDS011;18455;50.858;13.662;2024-01-16T03:28:46;7.97;;;2.83;;
31906;SDS011;18455;50.858;13.662;2024-01-16T03:33:46;5.67;;;2.67;;
31906;SDS011;18455;50.858;13.662;2024-01-16T03:38:46;6.80;;;2.57;;
31906;SDS011;18455;50.858;13.662;2024-01-16T03:43:46;6.10;;;2.37;;
31906;SDS011;18455;50.858;13.662;2024-01-16T03:48:46;6.23;;;2.20;;
31906;SDS011;18455;50.858;13.662;2024-01-16T03:53:46;5.57;;;1.87;;
31906;SDS011;18455;50.858;13.662;2024-01-16T03:58:47;6.03;;;2.13;;
31906;SDS011;18455;50.858;13.662;2024-01-16T04:03:47;6.93;;;2.33;;
31906;SDS011;18455;50.858;13.662;2024-01-16T04:08:47;4.37;;;2.07;;
31906;SDS011;18455;50.858;13.662;2024-01-16T04:13:48;2.20;;;2.00;;
31906;SDS011;18455;50.858;13.662;2024-01-16T04:18:48;5.37;;;2.03;;
31906;SDS011;18455;50.858;13.662;2024-01-16T04:23:48;1.93;;;1.73;;
31906;SDS011;18455;50.858;13.662;2024-01-16T04:28:48;4.17;;;1.93;;
31906;SDS011;18455;50.858;13.662;2024-01-16T04:33:48;4.63;;;2.03;;
31906;SDS011;18455;50.858;13.662;2024-01-16T04:38:49;2.97;;;1.87;;
31906;SDS011;18455;50.858;13.662;2024-01-16T04:43:49;4.63;;;2.20;;
31906;SDS011;18455;50.858;13.662;2024-01-16T04:48:50;4.63;;;1.90;;
31906;SDS011;18455;50.858;13.662;2024-01-16T04:53:50;3.93;;;2.30;;
31906;SDS011;18455;50.858;13.662;2024-01-16T04:58:50;5.80;;;2.70;;
31906;SDS011;18455;50.858;13.662;2024-01-16T05:03:52;4.90;;;2.40;;
31906;SDS011;18455;50.858;13.662;2024-01-16T05:08:52;5.33;;;2.00;;
31906;SDS011;18455;50.858;13.662;2024-01-16T05:13:52;4.40;;;2.10;;
31906;SDS011;18455;50.858;13.662;2024-01-16T05:18:57;6.60;;;1.73;;
31906;SDS011;18455;50.858;13.662;2024-01-16T05:23:57;3.73;;;1.80;;
31906;SDS011;18455;50.858;13.662;2024-01-16T05:28:58;3.77;;;1.70;;
31906;SDS011;18455;50.858;13.662;2024-01-16T05:33:58;5.83;;;1.90;;
31906;SDS011;18455;50.858;13.662;2024-01-16T05:38:58;5.63;;;1.93;;
31906;SDS011;18455;50.858;13.662;2024-01-16T05:43:58;4.13;;;2.40;;
31906;SDS011;18455;50.858;13.662;2024-01-16T05:48:58;4.23;;;2.30;;
31906;SDS011;18455;50.858;13.662;2024-01-16T05:53:59;7.30;;;2.43;;
31906;SDS011;18455;50.858;13.662;2024-01-16T05:58:59;8.30;;;2.43;;
31906;SDS011;18455;50.858;13.662;2024-01-16T06:03:59;7.30;;;2.17;;
31906;SDS011;18455;50.858;13.662;2024-01-16T06:08:59;4.07;;;2.30;;
31906;SDS011;18455;50.858;13.662;2024-01-16T06:14:04;4.50;;;2.17;;
31906;SDS011;18455;50.858;13.662;2024-01-16T06:19:05;2.27;;;2.00;;
31906;SDS011;18455;50.858;13.662;2024-01-16T06:24:05;4.33;;;2.30;;
31906;SDS011;18455;50.858;13.662;2024-01-16T06:29:05;2.23;;;2.07;;
31906;SDS011;18455;50.858;13.662;2024-01-16T06:34:05;10.07;;;2.97;;
31906;SDS011;18455;50.858;13.662;2024-01-16T06:39:06;3.20;;;2.63;;
31906;SDS011;18455;50.858;13.662;2024-01-16T06:44:06;10.13;;;3.17;;
31906;SDS011;18455;50.858;13.662;2024-01-16T06:49:07;10.27;;;3.93;;
31906;SDS011;18455;50.858;13.662;2024-01-16T06:54:07;6.90;;;2.80;;
31906;SDS011;18455;50.858;13.662;2024-01-16T06:59:07;4.57;;;3.13;;
31906;SDS011;18455;50.858;13.662;2024-01-16T07:04:07;7.10;;;2.90;;
31906;SDS011;18455;50.858;13.662;2024-01-16T07:09:07;8.27;;;2.87;;
31906;SDS011;18455;50.858;13.662;2024-01-16T07:14:10;6.97;;;2.80;;
31906;SDS011;18455;50.858;13.662;2024-01-16T07:19:10;6.10;;;2.57;;
31906;SDS011;18455;50.858;13.662;2024-01-16T07:24:12;5.13;;;2.57;;
31906;SDS011;18455;50.858;13.662;2024-01-16T07:29:13;7.70;;;2.33;;
31906;SDS011;18455;50.858;13.662;2024-01-16T07:34:13;11.20;;;2.27;;
31906;SDS011;18455;50.858;13.662;2024-01-16T07:39:19;7.33;;;2.57;;
31906;SDS011;18455;50.858;13.662;2024-01-16T07:44:20;6.50;;;2.63;;
31906;SDS011;18455;50.858;13.662;2024-01-16T07:49:21;3.57;;;2.33;;
31906;SDS011;18455;50.858;13.662;2024-01-16T07:54:21;6.50;;;2.70;;
31906;SDS011;18455;50.858;13.662;2024-01-16T07:59:21;7.77;;;2.87;;
31906;SDS011;18455;50.858;13.662;2024-01-16T08:04:21;12.27;;;2.93;;
31906;SDS011;18455;50.858;13.662;2024-01-16T08:09:22;8.00;;;2.80;;
31906;SDS011;18455;50.858;13.662;2024-01-16T08:14:22;4.20;;;2.43;;
31906;SDS011;18455;50.858;13.662;2024-01-16T08:19:22;5.70;;;2.70;;
31906;SDS011;18455;50.858;13.662;2024-01-16T08:24:22;10.57;;;2.70;;
31906;SDS011;18455;50.858;13.662;2024-01-16T08:29:23;7.53;;;2.50;;
31906;SDS011;18455;50.858;13.662;2024-01-16T08:34:23;7.20;;;2.97;;
31906;SDS011;18455;50.858;13.662;2024-01-16T08:39:23;10.87;;;3.03;;
31906;SDS011;18455;50.858;13.662;2024-01-16T08:44:24;7.77;;;3.00;;
31906;SDS011;18455;50.858;13.662;2024-01-16T08:49:24;7.40;;;2.20;;
31906;SDS011;18455;50.858;13.662;2024-01-16T08:54:24;16.07;;;2.50;;
31906;SDS011;18455;50.858;13.662;2024-01-16T08:59:25;6.87;;;2.70;;
31906;SDS011;18455;50.858;13.662;2024-01-16T09:04:26;4.90;;;2.60;;
31906;SDS011;18455;50.858;13.662;2024-01-16T09:09:26;11.43;;;3.77;;
31906;SDS011;18455;50.858;13.662;2024-01-16T09:14:26;6.20;;;2.70;;
31906;SDS011;18455;50.858;13.662;2024-01-16T09:19:26;8.90;;;3.70;;
31906;SDS011;18455;50.858;13.662;2024-01-16T09:24:26;10.53;;;3.07;;
31906;SDS011;18455;50.858;13.662;2024-01-16T09:29:26;7.20;;;3.60;;
31906;SDS011;18455;50.858;13.662;2024-01-16T09:34:27;10.17;;;2.63;;
31906;SDS011;18455;50.858;13.662;2024-01-16T09:39:28;6.40;;;2.93;;
31906;SDS011;18455;50.858;13.662;2024-01-16T09:44:31;3.10;;;2.43;;
31906;SDS011;18455;50.858;13.662;2024-01-16T09:49:31;8.57;;;3.00;;
31906;SDS011;18455;50.858;13.662;2024-01-16T09:54:31;6.40;;;3.30;;
31906;SDS011;18455;50.858;13.662;2024-01-16T09:59:32;7.57;;;2.77;;
31906;SDS011;18455;50.858;13.662;2024-01-16T10:04:33;4.53;;;2.83;;
31906;SDS011;18455;50.858;13.662;2024-01-16T10:09:34;10.40;;;3.70;;
31906;SDS011;18455;50.858;13.662;2024-01-16T10:14:34;8.70;;;2.90;;
31906;SDS011;18455;50.858;13.662;2024-01-16T10:19:34;6.67;;;2.13;;
31906;SDS011;18455;50.858;13.662;2024-01-16T10:24:35;4.47;;;2.43;;
31906;SDS011;18455;50.858;13.662;2024-01-16T10:29:35;7.33;;;2.43;;
31906;SDS011;18455;50.858;13.662;2024-01-16T10:34:36;5.83;;;2.90;;
31906;SDS011;18455;50.858;13.662;2024-01-16T10:39:36;7.53;;;2.97;;
31906;SDS011;18455;50.858;13.662;2024-01-16T10:44:41;5.07;;;2.70;;
31906;SDS011;18455;50.858;13.662;2024-01-16T10:49:52;4.60;;;2.97;;
31906;SDS011;18455;50.858;13.662;2024-01-16T10:54:52;4.23;;;2.67;;
31906;SDS011;18455;50.858;13.662;2024-01-16T11:00:00;6.80;;;2.60;;
31906;SDS011;18455;50.858;13.662;2024-01-16T11:05:01;7.43;;;2.97;;
31906;SDS011;18455;50.858;13.662;2024-01-16T11:10:01;6.90;;;2.50;;
31906;SDS011;18455;50.858;13.662;2024-01-16T11:15:02;7.83;;;3.23;;
31906;SDS011;18455;50.858;13.662;2024-01-16T11:20:08;6.57;;;2.90;;
31906;SDS011;18455;50.858;13.662;2024-01-16T11:25:10;11.80;;;3.20;;
31906;SDS011;18455;50.858;13.662;2024-01-16T11:30:11;7.70;;;2.37;;
31906;SDS011;18455;50.858;13.662;2024-01-16T11:35:11;10.40;;;3.40;;
31906;SDS011;18455;50.858;13.662;2024-01-16T11:50:27;5.63;;;2.60;;
31906;SDS011;18455;50.858;13.662;2024-01-16T11:55:31;5.70;;;2.67;;
31906;SDS011;18455;50.858;13.662;2024-01-16T12:00:32;4.90;;;2.57;;
31906;SDS011;18455;50.858;13.662;2024-01-16T12:05:35;9.83;;;6.43;;
31906;SDS011;18455;50.858;13.662;2024-01-16T12:10:45;5.17;;;2.50;;
31906;SDS011;18455;50.858;13.662;2024-01-16T12:15:46;11.47;;;2.77;;
31906;SDS011;18455;50.858;13.662;2024-01-16T12:20:46;7.93;;;3.00;;
31906;SDS011;18455;50.858;13.662;2024-01-16T12:25:46;9.27;;;4.67;;
31906;SDS011;18455;50.858;13.662;2024-01-16T12:30:49;14.63;;;8.10;;
31906;SDS011;18455;50.858;13.662;2024-01-16T12:35:56;7.27;;;3.43;;
31906;SDS011;18455;50.858;13.662;2024-01-16T12:41:01;7.67;;;2.70;;
31906;SDS011;18455;50.858;13.662;2024-01-16T12:46:02;5.23;;;2.93;;
31906;SDS011;18455;50.858;13.662;2024-01-16T12:51:02;6.90;;;2.73;;
31906;SDS011;18455;50.858;13.662;2024-01-16T12:56:02;4.87;;;2.80;;
31906;SDS011;18455;50.858;13.662;2024-01-16T13:06:22;28.73;;;15.47;;
31906;SDS011;18455;50.858;13.662;2024-01-16T13:11:22;5.90;;;3.10;;
31906;SDS011;18455;50.858;13.662;2024-01-16T13:16:23;5.87;;;3.47;;
31906;SDS011;18455;50.858;13.662;2024-01-16T13:21:23;6.20;;;3.23;;
31906;SDS011;18455;50.858;13.662;2024-01-16T13:26:25;9.03;;;3.07;;
31906;SDS011;18455;50.858;13.662;2024-01-16T13:31:25;4.10;;;2.67;;
31906;SDS011;18455;50.858;13.662;2024-01-16T13:36:25;8.23;;;3.53;;
31906;SDS011;18455;50.858;13.662;2024-01-16T13:41:26;4.43;;;2.93;;
31906;SDS011;18455;50.858;13.662;2024-01-16T13:46:27;9.00;;;2.93;;
31906;SDS011;18455;50.858;13.662;2024-01-16T13:51:27;13.30;;;3.83;;
31906;SDS011;18455;50.858;13.662;2024-01-16T13:56:28;5.67;;;2.67;;
31906;SDS011;18455;50.858;13.662;2024-01-16T14:01:28;5.73;;;2.20;;
31906;SDS011;18455;50.858;13.662;2024-01-16T14:06:28;7.53;;;3.23;;
31906;SDS011;18455;50.858;13.662;2024-01-16T14:11:30;4.27;;;2.77;;
31906;SDS011;18455;50.858;13.662;2024-01-16T14:16:31;5.40;;;3.03;;
31906;SDS011;18455;50.858;13.662;2024-01-16T14:21:32;8.77;;;3.08;;
31906;SDS011;18455;50.858;13.662;2024-01-16T14:26:32;12.03;;;4.97;;
31906;SDS011;18455;50.858;13.662;2024-01-16T14:31:32;11.20;;;4.03;;
31906;SDS011;18455;50.858;13.662;2024-01-16T14:36:32;7.03;;;3.80;;
31906;SDS011;18455;50.858;13.662;2024-01-16T14:41:33;6.67;;;3.63;;
31906;SDS011;18455;50.858;13.662;2024-01-16T14:46:33;6.57;;;4.10;;
31906;SDS011;18455;50.858;13.662;2024-01-16T14:51:33;6.53;;;3.10;;
31906;SDS011;18455;50.858;13.662;2024-01-16T14:56:33;5.17;;;3.37;;
31906;SDS011;18455;50.858;13.662;2024-01-16T15:01:33;8.70;;;4.03;;
31906;SDS011;18455;50.858;13.662;2024-01-16T15:06:33;12.37;;;7.60;;
31906;SDS011;18455;50.858;13.662;2024-01-16T15:11:34;10.23;;;3.60;;
31906;SDS011;18455;50.858;13.662;2024-01-16T15:16:34;47.60;;;16.30;;
31906;SDS011;18455;50.858;13.662;2024-01-16T15:21:34;44.03;;;19.27;;
31906;SDS011;18455;50.858;13.662;2024-01-16T15:26:34;349.53;;;110.00;;
31906;SDS011;18455;50.858;13.662;2024-01-16T15:31:35;205.77;;;73.77;;
31906;SDS011;18455;50.858;13.662;2024-01-16T15:36:35;114.10;;;49.30;;
31906;SDS011;18455;50.858;13.662;2024-01-16T15:41:35;48.90;;;22.63;;
31906;SDS011;18455;50.858;13.662;2024-01-16T15:51:54;78.87;;;30.00;;
31906;SDS011;18455;50.858;13.662;2024-01-16T15:56:55;55.67;;;23.60;;
31906;SDS011;18455;50.858;13.662;2024-01-16T16:01:55;20.30;;;10.33;;
31906;SDS011;18455;50.858;13.662;2024-01-16T16:06:55;7.70;;;5.17;;
31906;SDS011;18455;50.858;13.662;2024-01-16T16:11:55;6.27;;;4.20;;
31906;SDS011;18455;50.858;13.662;2024-01-16T16:16:56;15.13;;;8.60;;
31906;SDS011;18455;50.858;13.662;2024-01-16T16:22:03;9.73;;;6.63;;
31906;SDS011;18455;50.858;13.662;2024-01-16T16:27:05;11.37;;;4.90;;
31906;SDS011;18455;50.858;13.662;2024-01-16T16:32:21;27.73;;;11.77;;
31906;SDS011;18455;50.858;13.662;2024-01-16T16:37:21;10.80;;;5.40;;
31906;SDS011;18455;50.858;13.662;2024-01-16T16:42:22;11.83;;;6.20;;
31906;SDS011;18455;50.858;13.662;2024-01-16T16:47:23;18.63;;;11.23;;
31906;SDS011;18455;50.858;13.662;2024-01-16T16:52:23;16.60;;;7.30;;
31906;SDS011;18455;50.858;13.662;2024-01-16T16:57:23;18.53;;;7.90;;
31906;SDS011;18455;50.858;13.662;2024-01-16T17:02:23;15.30;;;5.87;;
31906;SDS011;18455;50.858;13.662;2024-01-16T17:07:24;12.33;;;6.40;;
31906;SDS011;18455;50.858;13.662;2024-01-16T17:12:24;9.30;;;4.40;;
31906;SDS011;18455;50.858;13.662;2024-01-16T17:17:24;7.60;;;3.87;;
31906;SDS011;18455;50.858;13.662;2024-01-16T17:22:26;10.17;;;4.20;;
31906;SDS011;18455;50.858;13.662;2024-01-16T17:27:26;10.20;;;4.40;;
31906;SDS011;18455;50.858;13.662;2024-01-16T17:32:28;16.83;;;7.33;;
31906;SDS011;18455;50.858;13.662;2024-01-16T17:37:28;29.87;;;18.00;;
31906;SDS011;18455;50.858;13.662;2024-01-16T17:42:28;13.80;;;5.63;;
31906;SDS011;18455;50.858;13.662;2024-01-16T17:47:28;8.10;;;4.53;;
31906;SDS011;18455;50.858;13.662;2024-01-16T17:52:29;11.60;;;5.13;;
31906;SDS011;18455;50.858;13.662;2024-01-16T17:57:33;6.30;;;3.53;;
31906;SDS011;18455;50.858;13.662;2024-01-16T18:02:33;4.90;;;3.60;;
31906;SDS011;18455;50.858;13.662;2024-01-16T18:07:33;7.23;;;4.50;;
31906;SDS011;18455;50.858;13.662;2024-01-16T18:12:33;14.60;;;5.20;;
31906;SDS011;18455;50.858;13.662;2024-01-16T18:17:33;5.17;;;3.97;;
31906;SDS011;18455;50.858;13.662;2024-01-16T18:22:34;12.13;;;5.57;;
31906;SDS011;18455;50.858;13.662;2024-01-16T18:27:37;7.13;;;4.20;;
31906;SDS011;18455;50.858;13.662;2024-01-16T18:32:37;11.03;;;4.97;;
31906;SDS011;18455;50.858;13.662;2024-01-16T18:37:38;3.07;;;2.57;;
31906;SDS011;18455;50.858;13.662;2024-01-16T18:42:39;8.33;;;4.30;;
31906;SDS011;18455;50.858;13.662;2024-01-16T18:47:39;9.17;;;5.40;;
31906;SDS011;18455;50.858;13.662;2024-01-16T18:52:42;8.37;;;5.17;;
31906;SDS011;18455;50.858;13.662;2024-01-16T18:57:43;10.83;;;5.77;;
31906;SDS011;18455;50.858;13.662;2024-01-16T19:02:44;8.63;;;4.23;;
31906;SDS011;18455;50.858;13.662;2024-01-16T19:07:45;4.10;;;3.67;;
31906;SDS011;18455;50.858;13.662;2024-01-16T19:12:46;16.67;;;8.03;;
31906;SDS011;18455;50.858;13.662;2024-01-16T19:17:46;11.70;;;5.27;;
31906;SDS011;18455;50.858;13.662;2024-01-16T19:22:47;8.47;;;4.83;;
31906;SDS011;18455;50.858;13.662;2024-01-16T19:27:47;6.33;;;4.10;;
31906;SDS011;18455;50.858;13.662;2024-01-16T19:32:48;8.77;;;4.43;;
31906;SDS011;18455;50.858;13.662;2024-01-16T19:37:48;4.60;;;3.23;;
31906;SDS011;18455;50.858;13.662;2024-01-16T19:42:48;7.07;;;4.13;;
31906;SDS011;18455;50.858;13.662;2024-01-16T19:47:50;6.03;;;3.43;;
31906;SDS011;18455;50.858;13.662;2024-01-16T19:52:52;3.73;;;2.93;;
31906;SDS011;18455;50.858;13.662;2024-01-16T19:57:55;4.07;;;3.57;;
31906;SDS011;18455;50.858;13.662;2024-01-16T20:02:56;5.07;;;3.03;;
31906;SDS011;18455;50.858;13.662;2024-01-16T20:07:57;7.27;;;2.70;;
31906;SDS011;18455;50.858;13.662;2024-01-16T20:12:57;6.13;;;3.17;;
31906;SDS011;18455;50.858;13.662;2024-01-16T20:18:02;15.70;;;8.00;;
31906;SDS011;18455;50.858;13.662;2024-01-16T20:23:03;13.90;;;5.30;;
31906;SDS011;18455;50.858;13.662;2024-01-16T20:28:03;21.47;;;8.43;;
31906;SDS011;18455;50.858;13.662;2024-01-16T20:33:05;24.57;;;9.33;;
31906;SDS011;18455;50.858;13.662;2024-01-16T20:38:05;9.07;;;4.33;;
31906;SDS011;18455;50.858;13.662;2024-01-16T20:43:06;7.70;;;3.73;;
31906;SDS011;18455;50.858;13.662;2024-01-16T20:48:06;6.10;;;2.87;;
31906;SDS011;18455;50.858;13.662;2024-01-16T20:53:07;4.70;;;2.58;;
31906;SDS011;18455;50.858;13.662;2024-01-16T20:58:07;5.03;;;2.90;;
31906;SDS011;18455;50.858;13.662;2024-01-16T21:03:09;7.80;;;3.63;;
31906;SDS011;18455;50.858;13.662;2024-01-16T21:08:11;9.97;;;3.30;;
31906;SDS011;18455;50.858;13.662;2024-01-16T21:13:12;6.97;;;3.40;;
31906;SDS011;18455;50.858;13.662;2024-01-16T21:18:14;6.47;;;3.73;;
31906;SDS011;18455;50.858;13.662;2024-01-16T21:23:16;9.00;;;3.33;;
31906;SDS011;18455;50.858;13.662;2024-01-16T21:28:16;6.83;;;3.67;;
31906;SDS011;18455;50.858;13.662;2024-01-16T21:33:17;21.57;;;8.60;;
31906;SDS011;18455;50.858;13.662;2024-01-16T21:38:17;11.93;;;4.20;;
31906;SDS011;18455;50.858;13.662;2024-01-16T21:43:17;5.93;;;3.80;;
31906;SDS011;18455;50.858;13.662;2024-01-16T21:48:18;10.27;;;4.47;;
31906;SDS011;18455;50.858;13.662;2024-01-16T21:53:18;7.50;;;3.60;;
31906;SDS011;18455;50.858;13.662;2024-01-16T21:58:18;7.83;;;4.40;;
31906;SDS011;18455;50.858;13.662;2024-01-16T22:03:18;12.80;;;5.80;;
31906;SDS011;18455;50.858;13.662;2024-01-16T22:08:19;4.97;;;3.67;;
31906;SDS011;18455;50.858;13.662;2024-01-16T22:13:19;9.70;;;3.70;;
31906;SDS011;18455;50.858;13.662;2024-01-16T22:18:19;4.23;;;2.90;;
31906;SDS011;18455;50.858;13.662;2024-01-16T22:23:20;2.70;;;2.43;;
31906;SDS011;18455;50.858;13.662;2024-01-16T22:28:20;4.67;;;3.03;;
31906;SDS011;18455;50.858;13.662;2024-01-16T22:33:20;7.80;;;2.60;;
31906;SDS011;18455;50.858;13.662;2024-01-16T22:38:20;4.40;;;2.33;;
31906;SDS011;18455;50.858;13.662;2024-01-16T22:43:20;7.17;;;3.33;;
31906;SDS011;18455;50.858;13.662;2024-01-16T22:48:21;3.40;;;2.90;;
31906;SDS011;18455;50.858;13.662;2024-01-16T22:53:21;2.07;;;1.97;;
31906;SDS011;18455;50.858;13.662;2024-01-16T22:58:22;5.37;;;2.70;;
31906;SDS011;18455;50.858;13.662;2024-01-16T23:03:22;6.93;;;3.73;;
31906;SDS011;18455;50.858;13.662;2024-01-16T23:08:23;4.27;;;2.80;;
31906;SDS011;18455;50.858;13.662;2024-01-16T23:13:23;8.23;;;3.30;;
31906;SDS011;18455;50.858;13.662;2024-01-16T23:18:25;3.20;;;2.50;;
31906;SDS011;18455;50.858;13.662;2024-01-16T23:23:27;6.57;;;3.03;;
31906;SDS011;18455;50.858;13.662;2024-01-16T23:28:27;7.73;;;4.37;;
31906;SDS011;18455;50.858;13.662;2024-01-16T23:33:27;10.37;;;4.67;;
31906;SDS011;18455;50.858;13.662;2024-01-16T23:38:28;13.70;;;4.70;;
31906;SDS011;18455;50.858;13.662;2024-01-16T23:43:28;6.53;;;4.47;;
31906;SDS011;18455;50.858;13.662;2024-01-16T23:48:33;8.20;;;4.20;;
31906;SDS011;18455;50.858;13.662;2024-01-16T23:53:33;4.63;;;3.50;;
31906;SDS011;18455;50.858;13.662;2024-01-16T23:58:34;8.90;;;4.63;;
